createdAt,value
2017-10-07T00:00:39.727Z,1019.72
2017-10-07T00:01:39.757Z,1019.71
2017-10-07T00:02:40.112Z,1019.71
2017-10-07T00:03:39.820Z,1019.77
2017-10-07T00:04:39.852Z,1019.75
2017-10-07T00:05:39.891Z,1019.74
2017-10-07T00:06:39.915Z,1019.77
2017-10-07T00:07:39.949Z,1019.75
2017-10-07T00:08:40.279Z,1019.73
2017-10-07T00:09:40.011Z,1019.75
2017-10-07T00:10:40.043Z,1019.72
2017-10-07T00:11:40.079Z,1019.71
2017-10-07T00:12:40.107Z,1019.72
2017-10-07T00:13:40.143Z,1019.75
2017-10-07T00:14:40.471Z,1019.68
2017-10-07T00:15:40.206Z,1019.67
2017-10-07T00:16:40.241Z,1019.64
2017-10-07T00:17:40.432Z,1019.64
2017-10-07T00:18:40.303Z,1019.67
2017-10-07T00:19:40.334Z,1019.64
2017-10-07T00:20:40.668Z,1019.62
2017-10-07T00:21:40.398Z,1019.60
2017-10-07T00:22:40.431Z,1019.61
2017-10-07T00:23:40.686Z,1019.58
2017-10-07T00:24:40.505Z,1019.56
2017-10-07T00:25:40.525Z,1019.58
2017-10-07T00:26:40.862Z,1019.54
2017-10-07T00:27:40.598Z,1019.53
2017-10-07T00:28:40.623Z,1019.53
2017-10-07T00:29:40.653Z,1019.53
2017-10-07T00:30:40.689Z,1019.51
2017-10-07T00:31:40.718Z,1019.57
2017-10-07T00:32:41.102Z,1019.57
2017-10-07T00:33:40.786Z,1019.58
2017-10-07T00:34:40.839Z,1019.53
2017-10-07T00:35:40.847Z,1019.50
2017-10-07T00:36:40.879Z,1019.51
2017-10-07T00:37:40.913Z,1019.47
2017-10-07T00:38:40.953Z,1019.50
2017-10-07T00:39:41.290Z,1019.49
2017-10-07T00:40:41.115Z,1019.46
2017-10-07T00:41:41.045Z,1019.43
2017-10-07T00:42:41.074Z,1019.46
2017-10-07T00:43:41.112Z,1019.44
2017-10-07T00:44:41.138Z,1019.46
2017-10-07T00:45:41.781Z,1019.51
2017-10-07T00:46:41.202Z,1019.48
2017-10-07T00:47:41.235Z,1019.41
2017-10-07T00:48:41.275Z,1019.47
2017-10-07T00:49:41.299Z,1019.45
2017-10-07T00:50:41.330Z,1019.51
2017-10-07T00:51:41.665Z,1019.44
2017-10-07T00:52:41.395Z,1019.41
2017-10-07T00:53:41.441Z,1019.43
2017-10-07T00:54:41.462Z,1019.45
2017-10-07T00:55:41.547Z,1019.42
2017-10-07T00:56:41.526Z,1019.40
2017-10-07T00:57:41.558Z,1019.42
2017-10-07T00:58:41.888Z,1019.40
2017-10-07T00:59:41.623Z,1019.39
2017-10-07T01:00:41.852Z,1019.40
2017-10-07T01:01:41.717Z,1019.41
2017-10-07T01:02:41.716Z,1019.39
2017-10-07T01:03:41.805Z,1019.39
2017-10-07T01:04:41.786Z,1019.39
2017-10-07T01:05:42.112Z,1019.35
2017-10-07T01:06:41.848Z,1019.33
2017-10-07T01:07:41.880Z,1019.30
2017-10-07T01:08:41.909Z,1019.30
2017-10-07T01:09:41.941Z,1019.26
2017-10-07T01:10:41.979Z,1019.24
2017-10-07T01:11:42.307Z,1019.21
2017-10-07T01:12:42.041Z,1019.18
2017-10-07T01:13:42.069Z,1019.20
2017-10-07T01:14:42.106Z,1019.18
2017-10-07T01:15:42.138Z,1019.16
2017-10-07T01:16:42.171Z,1019.13
2017-10-07T01:17:42.502Z,1019.15
2017-10-07T01:18:42.236Z,1019.15
2017-10-07T01:19:42.311Z,1019.12
2017-10-07T01:20:42.300Z,1019.10
2017-10-07T01:21:42.347Z,1019.07
2017-10-07T01:22:42.458Z,1019.08
2017-10-07T01:23:42.694Z,1019.06
2017-10-07T01:24:42.428Z,1019.04
2017-10-07T01:25:42.454Z,1018.99
2017-10-07T01:26:42.685Z,1018.99
2017-10-07T01:27:42.518Z,1019.00
2017-10-07T01:28:42.561Z,1018.99
2017-10-07T01:29:42.590Z,1018.94
2017-10-07T01:30:42.978Z,1018.89
2017-10-07T01:31:42.647Z,1018.89
2017-10-07T01:32:42.782Z,1018.89
2017-10-07T01:33:42.733Z,1018.91
2017-10-07T01:34:42.742Z,1018.90
2017-10-07T01:35:42.777Z,1018.92
2017-10-07T01:36:43.114Z,1018.94
2017-10-07T01:37:42.842Z,1018.92
2017-10-07T01:38:42.871Z,1018.93
2017-10-07T01:39:42.903Z,1018.92
2017-10-07T01:40:42.934Z,1018.88
2017-10-07T01:41:42.966Z,1018.91
2017-10-07T01:42:43.457Z,1018.88
2017-10-07T01:43:43.032Z,1018.86
2017-10-07T01:44:43.069Z,1018.83
2017-10-07T01:45:43.099Z,1018.84
2017-10-07T01:46:43.126Z,1018.82
2017-10-07T01:47:43.216Z,1018.78
2017-10-07T01:48:43.507Z,1018.76
2017-10-07T01:49:43.229Z,1018.76
2017-10-07T01:50:43.254Z,1018.75
2017-10-07T01:51:43.289Z,1018.66
2017-10-07T01:52:43.322Z,1018.63
2017-10-07T01:53:43.407Z,1018.64
2017-10-07T01:54:43.390Z,1018.66
2017-10-07T01:55:43.719Z,1018.60
2017-10-07T01:56:43.454Z,1018.68
2017-10-07T01:57:43.503Z,1018.63
2017-10-07T01:58:43.511Z,1018.66
2017-10-07T01:59:43.549Z,1018.60
2017-10-07T02:00:43.581Z,1018.58
2017-10-07T02:01:43.909Z,1018.57
2017-10-07T02:02:43.639Z,1018.56
2017-10-07T02:03:43.710Z,1018.56
2017-10-07T02:04:43.721Z,1018.64
2017-10-07T02:05:43.748Z,1018.67
2017-10-07T02:06:43.767Z,1018.71
2017-10-07T02:07:43.806Z,1018.67
2017-10-07T02:08:44.143Z,1018.61
2017-10-07T02:09:43.867Z,1018.63
2017-10-07T02:10:43.896Z,1018.62
2017-10-07T02:11:43.934Z,1018.63
2017-10-07T02:12:43.974Z,1018.59
2017-10-07T02:13:43.992Z,1018.63
2017-10-07T02:14:44.026Z,1018.62
2017-10-07T02:15:44.356Z,1018.62
2017-10-07T02:16:44.103Z,1018.62
2017-10-07T02:17:44.121Z,1018.65
2017-10-07T02:18:44.156Z,1018.66
2017-10-07T02:19:44.186Z,1018.62
2017-10-07T02:20:44.219Z,1018.63
2017-10-07T02:21:44.250Z,1018.65
2017-10-07T02:22:44.585Z,1018.65
2017-10-07T02:23:44.365Z,1018.67
2017-10-07T02:24:44.346Z,1018.68
2017-10-07T02:25:44.403Z,1018.68
2017-10-07T02:26:44.408Z,1018.66
2017-10-07T02:27:44.446Z,1018.62
2017-10-07T02:28:44.474Z,1018.64
2017-10-07T02:29:44.811Z,1018.61
2017-10-07T02:30:44.540Z,1018.65
2017-10-07T02:31:44.569Z,1018.61
2017-10-07T02:32:44.601Z,1018.61
2017-10-07T02:33:44.636Z,1018.58
2017-10-07T02:34:44.966Z,1018.53
2017-10-07T02:35:44.722Z,1018.51
2017-10-07T02:36:45.037Z,1018.51
2017-10-07T02:37:44.764Z,1018.55
2017-10-07T02:38:44.793Z,1018.54
2017-10-07T02:39:44.825Z,1018.59
2017-10-07T02:40:44.985Z,1018.54
2017-10-07T02:41:44.891Z,1018.59
2017-10-07T02:42:45.235Z,1018.59
2017-10-07T02:43:44.955Z,1018.61
2017-10-07T02:44:44.986Z,1018.62
2017-10-07T02:45:45.018Z,1018.63
2017-10-07T02:46:45.101Z,1018.66
2017-10-07T02:47:45.085Z,1018.66
2017-10-07T02:48:45.487Z,1018.68
2017-10-07T02:49:45.154Z,1018.72
2017-10-07T02:50:45.179Z,1018.67
2017-10-07T02:51:45.314Z,1018.64
2017-10-07T02:52:45.258Z,1018.68
2017-10-07T02:53:45.274Z,1018.67
2017-10-07T02:54:45.330Z,1018.64
2017-10-07T02:55:45.638Z,1018.60
2017-10-07T02:56:45.419Z,1018.59
2017-10-07T02:57:45.408Z,1018.59
2017-10-07T02:58:45.434Z,1018.60
2017-10-07T02:59:45.478Z,1018.57
2017-10-07T03:00:45.500Z,1018.59
2017-10-07T03:01:45.882Z,1018.57
2017-10-07T03:02:45.569Z,1018.54
2017-10-07T03:03:45.597Z,1018.51
2017-10-07T03:04:45.638Z,1018.54
2017-10-07T03:05:45.667Z,1018.53
2017-10-07T03:06:45.691Z,1018.54
2017-10-07T03:07:46.026Z,1018.57
2017-10-07T03:08:45.795Z,1018.55
2017-10-07T03:09:45.791Z,1018.56
2017-10-07T03:10:45.825Z,1018.52
2017-10-07T03:11:45.857Z,1018.48
2017-10-07T03:12:45.936Z,1018.46
2017-10-07T03:13:46.233Z,1018.45
2017-10-07T03:14:45.960Z,1018.45
2017-10-07T03:15:45.980Z,1018.46
2017-10-07T03:16:46.031Z,1018.43
2017-10-07T03:17:46.046Z,1018.41
2017-10-07T03:18:46.132Z,1018.43
2017-10-07T03:19:46.409Z,1018.44
2017-10-07T03:20:46.494Z,1018.43
2017-10-07T03:21:46.184Z,1018.45
2017-10-07T03:22:46.216Z,1018.43
2017-10-07T03:23:46.243Z,1018.41
2017-10-07T03:24:46.271Z,1018.41
2017-10-07T03:25:46.602Z,1018.43
2017-10-07T03:26:46.510Z,1018.43
2017-10-07T03:27:46.368Z,1018.38
2017-10-07T03:28:46.397Z,1018.40
2017-10-07T03:29:46.444Z,1018.37
2017-10-07T03:30:46.479Z,1018.37
2017-10-07T03:31:46.801Z,1018.36
2017-10-07T03:32:46.530Z,1018.39
2017-10-07T03:33:46.559Z,1018.32
2017-10-07T03:34:46.596Z,1018.34
2017-10-07T03:35:46.624Z,1018.34
2017-10-07T03:36:46.708Z,1018.32
2017-10-07T03:37:47.007Z,1018.29
2017-10-07T03:38:46.770Z,1018.32
2017-10-07T03:39:46.760Z,1018.31
2017-10-07T03:40:46.806Z,1018.26
2017-10-07T03:41:46.819Z,1018.27
2017-10-07T03:42:46.856Z,1018.29
2017-10-07T03:43:46.894Z,1018.25
2017-10-07T03:44:47.217Z,1018.26
2017-10-07T03:45:46.945Z,1018.28
2017-10-07T03:46:46.976Z,1018.24
2017-10-07T03:47:47.013Z,1018.20
2017-10-07T03:48:47.047Z,1018.20
2017-10-07T03:49:47.078Z,1018.20
2017-10-07T03:50:47.108Z,1018.21
2017-10-07T03:51:47.443Z,1018.23
2017-10-07T03:52:47.220Z,1018.21
2017-10-07T03:53:47.253Z,1018.21
2017-10-07T03:54:47.237Z,1018.18
2017-10-07T03:55:47.267Z,1018.19
2017-10-07T03:56:47.337Z,1018.19
2017-10-07T03:57:47.335Z,1018.13
2017-10-07T03:58:47.818Z,1018.12
2017-10-07T03:59:47.394Z,1018.09
2017-10-07T04:00:47.427Z,1018.06
2017-10-07T04:01:47.462Z,1018.06
2017-10-07T04:02:47.499Z,1018.05
2017-10-07T04:03:47.524Z,1018.03
2017-10-07T04:04:47.866Z,1018.03
2017-10-07T04:05:47.589Z,1018.03
2017-10-07T04:06:47.674Z,1018.00
2017-10-07T04:07:47.653Z,1018.04
2017-10-07T04:08:47.735Z,1017.96
2017-10-07T04:09:47.717Z,1017.96
2017-10-07T04:10:48.046Z,1017.90
2017-10-07T04:11:47.780Z,1017.96
2017-10-07T04:12:47.813Z,1017.94
2017-10-07T04:13:48.001Z,1017.93
2017-10-07T04:14:47.882Z,1017.92
2017-10-07T04:15:47.916Z,1017.96
2017-10-07T04:16:47.946Z,1017.95
2017-10-07T04:17:48.280Z,1017.94
2017-10-07T04:18:48.035Z,1017.94
2017-10-07T04:19:48.088Z,1017.94
2017-10-07T04:20:48.072Z,1017.91
2017-10-07T04:21:48.100Z,1017.87
2017-10-07T04:22:48.136Z,1017.86
2017-10-07T04:23:48.475Z,1017.86
2017-10-07T04:24:48.348Z,1017.84
2017-10-07T04:25:48.233Z,1017.86
2017-10-07T04:26:48.263Z,1017.84
2017-10-07T04:27:48.297Z,1017.86
2017-10-07T04:28:48.330Z,1017.83
2017-10-07T04:29:48.659Z,1017.83
2017-10-07T04:30:48.477Z,1017.84
2017-10-07T04:31:48.423Z,1017.81
2017-10-07T04:32:48.495Z,1017.83
2017-10-07T04:33:48.484Z,1017.82
2017-10-07T04:34:48.517Z,1017.87
2017-10-07T04:35:48.850Z,1017.88
2017-10-07T04:36:48.735Z,1017.87
2017-10-07T04:37:48.613Z,1017.89
2017-10-07T04:38:48.646Z,1017.92
2017-10-07T04:39:48.680Z,1017.96
2017-10-07T04:40:48.708Z,1017.98
2017-10-07T04:41:48.742Z,1018.00
2017-10-07T04:42:49.078Z,1018.00
2017-10-07T04:43:48.819Z,1018.01
2017-10-07T04:44:48.845Z,1018.03
2017-10-07T04:45:48.871Z,1018.06
2017-10-07T04:46:48.900Z,1018.08
2017-10-07T04:47:49.107Z,1018.06
2017-10-07T04:48:48.992Z,1018.09
2017-10-07T04:49:49.309Z,1018.09
2017-10-07T04:50:49.030Z,1018.07
2017-10-07T04:51:49.082Z,1018.12
2017-10-07T04:52:49.094Z,1018.12
2017-10-07T04:53:49.233Z,1018.14
2017-10-07T04:54:49.160Z,1018.10
2017-10-07T04:55:49.197Z,1018.10
2017-10-07T04:56:49.525Z,1018.07
2017-10-07T04:57:49.284Z,1018.08
2017-10-07T04:58:49.286Z,1018.07
2017-10-07T04:59:49.320Z,1018.03
2017-10-07T05:00:49.366Z,1018.11
2017-10-07T05:01:49.497Z,1018.09
2017-10-07T05:02:49.426Z,1018.09
2017-10-07T05:03:49.750Z,1018.04
2017-10-07T05:04:49.486Z,1017.99
2017-10-07T05:05:49.524Z,1018.01
2017-10-07T05:06:49.577Z,1017.97
2017-10-07T05:07:49.581Z,1017.97
2017-10-07T05:08:49.606Z,1017.98
2017-10-07T05:09:49.649Z,1017.97
2017-10-07T05:10:49.974Z,1017.96
2017-10-07T05:11:49.708Z,1017.96
2017-10-07T05:12:49.989Z,1017.96
2017-10-07T05:13:49.772Z,1017.97
2017-10-07T05:14:49.811Z,1017.96
2017-10-07T05:15:49.832Z,1017.95
2017-10-07T05:16:50.163Z,1017.95
2017-10-07T05:17:49.894Z,1017.95
2017-10-07T05:18:50.032Z,1017.91
2017-10-07T05:19:49.959Z,1017.90
2017-10-07T05:20:49.995Z,1017.85
2017-10-07T05:21:50.030Z,1017.87
2017-10-07T05:22:50.362Z,1017.84
2017-10-07T05:23:50.088Z,1017.85
2017-10-07T05:24:50.127Z,1017.87
2017-10-07T05:25:50.183Z,1017.77
2017-10-07T05:26:50.186Z,1017.76
2017-10-07T05:27:50.266Z,1017.73
2017-10-07T05:28:50.547Z,1017.72
2017-10-07T05:29:50.380Z,1017.73
2017-10-07T05:30:50.314Z,1017.69
2017-10-07T05:31:50.349Z,1017.75
2017-10-07T05:32:50.374Z,1017.74
2017-10-07T05:33:50.409Z,1017.72
2017-10-07T05:34:50.738Z,1017.73
2017-10-07T05:35:50.493Z,1017.73
2017-10-07T05:36:50.504Z,1017.75
2017-10-07T05:37:50.543Z,1017.71
2017-10-07T05:38:50.620Z,1017.67
2017-10-07T05:39:50.609Z,1017.68
2017-10-07T05:40:50.937Z,1017.62
2017-10-07T05:41:50.664Z,1017.68
2017-10-07T05:42:50.699Z,1017.74
2017-10-07T05:43:50.729Z,1017.75
2017-10-07T05:44:50.758Z,1017.70
2017-10-07T05:45:50.813Z,1017.67
2017-10-07T05:46:51.126Z,1017.64
2017-10-07T05:47:50.882Z,1017.66
2017-10-07T05:48:50.889Z,1017.66
2017-10-07T05:49:50.979Z,1017.65
2017-10-07T05:50:50.954Z,1017.63
2017-10-07T05:51:50.988Z,1017.60
2017-10-07T05:52:51.316Z,1017.58
2017-10-07T05:53:51.078Z,1017.55
2017-10-07T05:54:51.188Z,1017.54
2017-10-07T05:55:51.112Z,1017.56
2017-10-07T05:56:51.142Z,1017.54
2017-10-07T05:57:51.225Z,1017.52
2017-10-07T05:58:51.530Z,1017.53
2017-10-07T05:59:51.238Z,1017.51
2017-10-07T06:00:51.585Z,1017.52
2017-10-07T06:01:51.341Z,1017.45
2017-10-07T06:02:51.340Z,1017.51
2017-10-07T06:03:51.375Z,1017.52
2017-10-07T06:04:51.699Z,1017.46
2017-10-07T06:05:51.434Z,1017.48
2017-10-07T06:06:51.613Z,1017.48
2017-10-07T06:07:51.502Z,1017.52
2017-10-07T06:08:51.528Z,1017.52
2017-10-07T06:09:51.560Z,1017.47
2017-10-07T06:10:51.892Z,1017.45
2017-10-07T06:11:51.629Z,1017.41
2017-10-07T06:12:51.654Z,1017.33
2017-10-07T06:13:51.692Z,1017.34
2017-10-07T06:14:51.722Z,1017.33
2017-10-07T06:15:51.751Z,1017.34
2017-10-07T06:16:52.090Z,1017.34
2017-10-07T06:17:52.065Z,1017.33
2017-10-07T06:18:51.854Z,1017.30
2017-10-07T06:19:51.878Z,1017.33
2017-10-07T06:20:51.922Z,1017.38
2017-10-07T06:21:51.992Z,1017.38
2017-10-07T06:22:52.277Z,1017.40
2017-10-07T06:23:52.160Z,1017.37
2017-10-07T06:24:52.041Z,1017.34
2017-10-07T06:25:52.076Z,1017.32
2017-10-07T06:26:52.103Z,1017.34
2017-10-07T06:27:52.137Z,1017.35
2017-10-07T06:28:52.468Z,1017.34
2017-10-07T06:29:52.199Z,1017.35
2017-10-07T06:30:52.231Z,1017.29
2017-10-07T06:31:52.264Z,1017.30
2017-10-07T06:32:52.295Z,1017.32
2017-10-07T06:33:52.328Z,1017.32
2017-10-07T06:34:52.561Z,1017.28
2017-10-07T06:35:52.709Z,1017.26
2017-10-07T06:36:52.426Z,1017.28
2017-10-07T06:37:52.512Z,1017.24
2017-10-07T06:38:52.517Z,1017.20
2017-10-07T06:39:52.525Z,1017.20
2017-10-07T06:40:52.609Z,1017.15
2017-10-07T06:41:52.584Z,1017.16
2017-10-07T06:42:53.337Z,1017.16
2017-10-07T06:43:52.650Z,1017.13
2017-10-07T06:44:52.681Z,1017.13
2017-10-07T06:45:52.722Z,1017.10
2017-10-07T06:46:52.747Z,1017.10
2017-10-07T06:47:52.777Z,1017.09
2017-10-07T06:48:52.912Z,1017.11
2017-10-07T06:49:53.146Z,1017.10
2017-10-07T06:50:52.877Z,1017.10
2017-10-07T06:51:52.906Z,1017.13
2017-10-07T06:52:52.989Z,1017.15
2017-10-07T06:53:52.970Z,1017.11
2017-10-07T06:54:53.008Z,1017.12
2017-10-07T06:55:53.037Z,1017.07
2017-10-07T06:56:53.369Z,1017.07
2017-10-07T06:57:53.102Z,1017.08
2017-10-07T06:58:53.133Z,1017.08
2017-10-07T06:59:53.370Z,1017.00
2017-10-07T07:00:53.194Z,1017.04
2017-10-07T07:01:53.227Z,1017.09
2017-10-07T07:02:53.560Z,1017.03
2017-10-07T07:03:53.292Z,1017.02
2017-10-07T07:04:53.328Z,1016.98
2017-10-07T07:05:53.509Z,1017.01
2017-10-07T07:06:53.391Z,1017.00
2017-10-07T07:07:53.450Z,1016.97
2017-10-07T07:08:53.758Z,1016.96
2017-10-07T07:09:53.484Z,1016.98
2017-10-07T07:10:53.519Z,1016.93
2017-10-07T07:11:53.551Z,1016.94
2017-10-07T07:12:53.587Z,1016.96
2017-10-07T07:13:53.616Z,1016.90
2017-10-07T07:14:53.954Z,1016.94
2017-10-07T07:15:53.682Z,1016.92
2017-10-07T07:16:53.816Z,1016.86
2017-10-07T07:17:53.748Z,1016.84
2017-10-07T07:18:53.779Z,1016.85
2017-10-07T07:19:53.810Z,1016.81
2017-10-07T07:20:54.142Z,1016.81
2017-10-07T07:21:53.875Z,1016.78
2017-10-07T07:22:54.030Z,1016.79
2017-10-07T07:23:53.958Z,1016.82
2017-10-07T07:24:53.976Z,1016.81
2017-10-07T07:25:54.006Z,1016.82
2017-10-07T07:26:54.044Z,1016.73
2017-10-07T07:27:54.666Z,1016.80
2017-10-07T07:28:54.101Z,1016.76
2017-10-07T07:29:54.133Z,1016.76
2017-10-07T07:30:54.163Z,1016.71
2017-10-07T07:31:54.198Z,1016.71
2017-10-07T07:32:54.231Z,1016.74
2017-10-07T07:33:54.563Z,1016.76
2017-10-07T07:34:54.300Z,1016.75
2017-10-07T07:35:54.330Z,1016.80
2017-10-07T07:36:54.414Z,1016.83
2017-10-07T07:37:54.398Z,1016.76
2017-10-07T07:38:54.729Z,1016.73
2017-10-07T07:39:54.762Z,1016.75
2017-10-07T07:40:54.487Z,1016.71
2017-10-07T07:41:54.521Z,1016.76
2017-10-07T07:42:54.555Z,1016.78
2017-10-07T07:43:54.592Z,1016.74
2017-10-07T07:44:54.619Z,1016.72
2017-10-07T07:45:55.001Z,1016.70
2017-10-07T07:46:54.683Z,1016.68
2017-10-07T07:47:54.723Z,1016.62
2017-10-07T07:48:54.760Z,1016.68
2017-10-07T07:49:54.784Z,1016.68
2017-10-07T07:50:54.816Z,1016.67
2017-10-07T07:51:55.145Z,1016.61
2017-10-07T07:52:54.907Z,1016.59
2017-10-07T07:53:55.114Z,1016.59
2017-10-07T07:54:54.941Z,1016.65
2017-10-07T07:55:54.983Z,1016.62
2017-10-07T07:56:55.010Z,1016.63
2017-10-07T07:57:55.352Z,1016.58
2017-10-07T07:58:55.104Z,1016.59
2017-10-07T07:59:55.106Z,1016.52
2017-10-07T08:00:55.775Z,1016.56
2017-10-07T08:01:55.189Z,1016.59
2017-10-07T08:02:55.202Z,1016.66
2017-10-07T08:03:55.587Z,1016.60
2017-10-07T08:04:55.269Z,1016.63
2017-10-07T08:05:55.320Z,1016.62
2017-10-07T08:06:55.339Z,1016.67
2017-10-07T08:07:55.378Z,1016.60
2017-10-07T08:08:55.471Z,1016.59
2017-10-07T08:09:55.748Z,1016.57
2017-10-07T08:10:55.465Z,1016.54
2017-10-07T08:11:55.499Z,1016.52
2017-10-07T08:12:55.529Z,1016.56
2017-10-07T08:13:55.678Z,1016.59
2017-10-07T08:14:55.594Z,1016.53
2017-10-07T08:15:55.941Z,1016.59
2017-10-07T08:16:55.659Z,1016.60
2017-10-07T08:17:55.705Z,1016.59
2017-10-07T08:18:55.739Z,1016.58
2017-10-07T08:19:55.761Z,1016.63
2017-10-07T08:20:55.789Z,1016.58
2017-10-07T08:21:56.200Z,1016.57
2017-10-07T08:22:55.859Z,1016.54
2017-10-07T08:23:55.987Z,1016.51
2017-10-07T08:24:57.202Z,1016.49
2017-10-07T08:25:55.982Z,1016.51
2017-10-07T08:26:55.985Z,1016.43
2017-10-07T08:27:56.321Z,1016.40
2017-10-07T08:28:56.102Z,1016.42
2017-10-07T08:29:56.083Z,1016.44
2017-10-07T08:30:56.118Z,1016.44
2017-10-07T08:31:56.358Z,1016.34
2017-10-07T08:32:56.241Z,1016.32
2017-10-07T08:33:56.589Z,1016.35
2017-10-07T08:34:56.253Z,1016.34
2017-10-07T08:35:56.353Z,1016.29
2017-10-07T08:36:56.584Z,1016.31
2017-10-07T08:37:56.363Z,1016.32
2017-10-07T08:38:56.379Z,1016.27
2017-10-07T08:39:56.925Z,1016.30
2017-10-07T08:40:56.440Z,1016.33
2017-10-07T08:41:56.482Z,1016.31
2017-10-07T08:42:56.515Z,1016.32
2017-10-07T08:43:56.540Z,1016.34
2017-10-07T08:44:56.574Z,1016.35
2017-10-07T08:45:56.611Z,1016.33
2017-10-07T08:46:56.948Z,1016.27
2017-10-07T08:47:56.714Z,1016.24
2017-10-07T08:48:56.754Z,1016.25
2017-10-07T08:49:56.871Z,1016.22
2017-10-07T08:50:56.773Z,1016.22
2017-10-07T08:51:56.927Z,1016.14
2017-10-07T08:52:56.939Z,1016.18
2017-10-07T08:53:57.169Z,1016.20
2017-10-07T08:54:57.124Z,1016.19
2017-10-07T08:55:56.942Z,1016.20
2017-10-07T08:56:56.961Z,1016.22
2017-10-07T08:57:57.000Z,1016.17
2017-10-07T08:58:57.026Z,1016.15
2017-10-07T08:59:57.110Z,1016.08
2017-10-07T09:00:57.091Z,1016.13
2017-10-07T09:01:57.148Z,1016.03
2017-10-07T09:02:57.155Z,1015.99
2017-10-07T09:03:57.208Z,1016.04
2017-10-07T09:04:57.520Z,1016.07
2017-10-07T09:05:57.258Z,1016.05
2017-10-07T09:06:57.386Z,1015.94
2017-10-07T09:07:57.331Z,1016.00
2017-10-07T09:08:57.352Z,1015.91
2017-10-07T09:09:57.399Z,1015.97
2017-10-07T09:10:57.427Z,1015.97
2017-10-07T09:11:57.776Z,1015.92
2017-10-07T09:12:57.635Z,1015.94
2017-10-07T09:13:57.525Z,1015.98
2017-10-07T09:14:57.585Z,1015.96
2017-10-07T09:15:57.594Z,1016.00
2017-10-07T09:16:57.728Z,1015.95
2017-10-07T09:17:57.948Z,1015.95
2017-10-07T09:18:57.681Z,1015.92
2017-10-07T09:19:57.712Z,1015.91
2017-10-07T09:20:57.748Z,1015.87
2017-10-07T09:21:57.829Z,1015.84
2017-10-07T09:22:57.809Z,1015.85
2017-10-07T09:23:58.149Z,1015.80
2017-10-07T09:24:57.947Z,1015.77
2017-10-07T09:25:57.908Z,1015.79
2017-10-07T09:26:57.939Z,1015.79
2017-10-07T09:27:58.074Z,1015.75
2017-10-07T09:28:58.029Z,1015.71
2017-10-07T09:29:58.041Z,1015.70
2017-10-07T09:30:58.382Z,1015.75
2017-10-07T09:31:58.216Z,1015.65
2017-10-07T09:32:58.140Z,1015.63
2017-10-07T09:33:58.172Z,1015.57
2017-10-07T09:34:58.239Z,1015.56
2017-10-07T09:35:58.233Z,1015.53
2017-10-07T09:36:58.635Z,1015.51
2017-10-07T09:37:58.303Z,1015.53
2017-10-07T09:38:58.350Z,1015.52
2017-10-07T09:39:58.365Z,1015.50
2017-10-07T09:40:58.400Z,1015.50
2017-10-07T09:41:58.439Z,1015.48
2017-10-07T09:42:58.910Z,1015.44
2017-10-07T09:43:58.495Z,1015.41
2017-10-07T09:44:58.534Z,1015.40
2017-10-07T09:45:58.565Z,1015.38
2017-10-07T09:46:58.593Z,1015.36
2017-10-07T09:47:58.626Z,1015.35
2017-10-07T09:48:59.011Z,1015.35
2017-10-07T09:49:58.702Z,1015.30
2017-10-07T09:50:58.722Z,1015.32
2017-10-07T09:51:58.760Z,1015.33
2017-10-07T09:52:58.800Z,1015.33
2017-10-07T09:53:58.827Z,1015.28
2017-10-07T09:54:59.170Z,1015.21
2017-10-07T09:55:58.892Z,1015.20
2017-10-07T09:56:58.949Z,1015.20
2017-10-07T09:57:58.955Z,1015.17
2017-10-07T09:58:58.985Z,1015.26
2017-10-07T09:59:59.071Z,1015.23
2017-10-07T10:00:59.353Z,1015.19
2017-10-07T10:01:59.082Z,1015.16
2017-10-07T10:02:59.116Z,1015.24
2017-10-07T10:03:59.190Z,1015.17
2017-10-07T10:04:59.437Z,1015.06
2017-10-07T10:06:59.548Z,1015.13
2017-10-07T10:07:59.285Z,1015.05
2017-10-07T10:08:59.311Z,1015.11
2017-10-07T10:09:59.341Z,1015.09
2017-10-07T10:10:59.633Z,1015.08
2017-10-07T10:11:59.413Z,1015.08
2017-10-07T10:12:59.841Z,1015.00
2017-10-07T10:13:59.473Z,1014.97
2017-10-07T10:14:59.510Z,1015.04
2017-10-07T10:15:59.587Z,1015.02
2017-10-07T10:17:59.605Z,1014.94
2017-10-07T10:18:59.651Z,1014.93
2017-10-07T10:19:59.980Z,1014.92
2017-10-07T10:20:59.708Z,1014.89
2017-10-07T10:22:59.966Z,1014.88
2017-10-07T10:23:59.810Z,1014.93
2017-10-07T10:24:59.889Z,1014.90
2017-10-07T10:26:00.166Z,1014.92
2017-10-07T10:26:59.950Z,1014.92
2017-10-07T10:27:59.930Z,1014.91
2017-10-07T10:29:59.998Z,1014.89
2017-10-07T10:31:00.035Z,1014.88
2017-10-07T10:32:00.373Z,1014.83
2017-10-07T10:33:00.098Z,1014.77
2017-10-07T10:34:00.138Z,1014.81
2017-10-07T10:35:00.384Z,1014.75
2017-10-07T10:36:00.199Z,1014.77
2017-10-07T10:37:00.276Z,1014.76
2017-10-07T10:38:01.295Z,1014.77
2017-10-07T10:39:00.600Z,1014.74
2017-10-07T10:40:00.333Z,1014.70
2017-10-07T10:41:00.407Z,1014.73
2017-10-07T10:42:00.383Z,1014.67
2017-10-07T10:43:00.416Z,1014.67
2017-10-07T10:44:00.452Z,1014.69
2017-10-07T10:45:00.781Z,1014.63
2017-10-07T10:46:00.515Z,1014.62
2017-10-07T10:47:00.666Z,1014.56
2017-10-07T10:48:00.578Z,1014.55
2017-10-07T10:49:00.614Z,1014.59
2017-10-07T10:50:00.641Z,1014.58
2017-10-07T10:51:03.254Z,1014.62
2017-10-07T10:52:00.863Z,1014.61
2017-10-07T10:53:01.145Z,1014.63
2017-10-07T10:54:00.824Z,1014.59
2017-10-07T10:55:00.806Z,1014.61
2017-10-07T10:56:00.845Z,1014.60
2017-10-07T10:57:01.187Z,1014.58
2017-10-07T10:58:01.407Z,1014.57
2017-10-07T10:59:00.937Z,1014.54
2017-10-07T11:00:00.967Z,1014.51
2017-10-07T11:01:01.019Z,1014.49
2017-10-07T11:02:01.063Z,1014.50
2017-10-07T11:03:01.378Z,1014.46
2017-10-07T11:04:01.305Z,1014.44
2017-10-07T11:05:01.175Z,1014.38
2017-10-07T11:06:01.168Z,1014.37
2017-10-07T11:07:01.200Z,1014.40
2017-10-07T11:08:01.253Z,1014.37
2017-10-07T11:09:01.784Z,1014.35
2017-10-07T11:10:01.307Z,1014.32
2017-10-07T11:11:01.352Z,1014.26
2017-10-07T11:12:01.376Z,1014.26
2017-10-07T11:13:01.396Z,1014.26
2017-10-07T11:14:01.479Z,1014.19
2017-10-07T11:15:01.754Z,1014.16
2017-10-07T11:16:01.545Z,1014.16
2017-10-07T11:17:01.529Z,1014.10
2017-10-07T11:18:01.561Z,1014.09
2017-10-07T11:19:01.641Z,1014.07
2017-10-07T11:20:01.670Z,1014.04
2017-10-07T11:21:01.954Z,1014.12
2017-10-07T11:22:01.682Z,1014.08
2017-10-07T11:23:01.720Z,1014.11
2017-10-07T11:24:01.757Z,1014.00
2017-10-07T11:25:01.980Z,1014.10
2017-10-07T11:26:01.927Z,1014.06
2017-10-07T11:27:01.845Z,1014.09
2017-10-07T11:28:02.180Z,1014.06
2017-10-07T11:29:01.927Z,1013.99
2017-10-07T11:30:01.943Z,1013.98
2017-10-07T11:31:02.026Z,1013.97
2017-10-07T11:32:02.036Z,1013.91
2017-10-07T11:33:02.045Z,1013.96
2017-10-07T11:34:02.381Z,1013.91
2017-10-07T11:35:02.310Z,1013.89
2017-10-07T11:36:02.149Z,1013.92
2017-10-07T11:37:02.278Z,1013.83
2017-10-07T11:38:02.202Z,1013.87
2017-10-07T11:39:02.260Z,1013.86
2017-10-07T11:40:02.573Z,1013.84
2017-10-07T11:41:02.801Z,1013.86
2017-10-07T11:42:02.331Z,1013.76
2017-10-07T11:43:02.365Z,1013.72
2017-10-07T11:44:02.454Z,1013.72
2017-10-07T11:45:02.441Z,1013.67
2017-10-07T11:46:02.810Z,1013.68
2017-10-07T11:47:02.492Z,1013.64
2017-10-07T11:48:02.580Z,1013.62
2017-10-07T11:49:02.562Z,1013.62
2017-10-07T11:50:02.601Z,1013.55
2017-10-07T11:51:02.728Z,1013.65
2017-10-07T11:52:02.982Z,1013.58
2017-10-07T11:53:02.739Z,1013.53
2017-10-07T11:54:02.725Z,1013.54
2017-10-07T11:55:02.749Z,1013.52
2017-10-07T11:56:02.814Z,1013.50
2017-10-07T11:57:02.827Z,1013.57
2017-10-07T11:58:03.151Z,1013.50
2017-10-07T12:00:02.918Z,1013.49
2017-10-07T12:01:02.952Z,1013.46
2017-10-07T12:02:02.979Z,1013.45
2017-10-07T12:03:03.009Z,1013.47
2017-10-07T12:04:04.759Z,1013.47
2017-10-07T12:05:03.081Z,1013.50
2017-10-07T12:06:03.102Z,1013.45
2017-10-07T12:08:03.224Z,1013.42
2017-10-07T12:09:03.202Z,1013.39
2017-10-07T12:11:03.576Z,1013.44
2017-10-07T12:12:03.333Z,1013.39
2017-10-07T12:13:03.482Z,1013.39